Skip to Main Content
SEARCH:
Location Air RH Dwp Precip Type Wind Speed Wind Gust Direction Pavement Temperature Date/Time
Hatem Bridge US 40 E/B 57 96 56 None 5 mph 8 mph E 59 - 59 4/25/2017 6:09:00 PM
I-270 at I-370 58 95 56 None Calm Calm N 60 - 60 4/25/2017 6:05:00 PM
I-270 at MD-109 58 100 58 None Calm 4 mph NW 60 - 60 4/25/2017 6:05:00 PM
I-495 at American Legion Bridge 60 98 59 None 6 mph 17 mph E 64 - 65 4/25/2017 6:05:00 PM
I-68 at MD-219 50 100 50 None 9 mph 17 mph E 54 - 56 4/25/2017 6:05:00 PM
I-68 at Savage Mt 50 100 50 None 8 mph 16 mph E 53 - 53 4/25/2017 6:05:00 PM
I-68 at Sideling Hill 53 100 53 None 4 mph 9 mph NE 57 - 57 4/25/2017 6:05:00 PM
I-68 at WV Line 55 84 50 None 4 mph 10 mph W 60 - 60 4/25/2017 6:05:00 PM
I-695 at I-83 58 92 55 None 12 mph 24 mph E 58 - 59 4/25/2017 6:05:00 PM
I-70 at Fred-Wash Co. 55 99 55 None Calm 9 mph S 59 - 59 4/25/2017 6:05:00 PM
I-70 at I-695 57 97 56 None 6 mph 14 mph E 58 - 62 4/25/2017 6:05:00 PM
I-70 at I-81 56 100 56 None 7 mph 12 mph N 59 - 59 4/25/2017 6:05:00 PM
I-70 at MD-27 - - - No Data Available - - No Data Available -
I-70 at MD-32 57 97 56 None 4 mph 15 mph NE 59 - 60 4/25/2017 6:05:00 PM
I-83 at MD-137 56 100 56 None 6 mph 13 mph NE 58 - 58 4/25/2017 6:05:00 PM
I-95 at I-695 NE 58 90 55 None 8 mph 9 mph E 58 - 59 4/25/2017 6:09:00 PM
I-95 at Patuxent River 57 100 57 None 7 mph 16 mph NE 60 - 61 4/25/2017 6:05:00 PM
I-95 at Tydings Bridge 57 92 55 None 11 mph 23 mph E 59 - 60 4/25/2017 6:05:00 PM
I-95/495 at I-295 62 86 58 None 6 mph 9 mph N 61 - 63 4/25/2017 6:05:00 PM
I-97 at MD-100 57 96 56 Rain 11 mph 22 mph NE 61 - 61 4/25/2017 6:05:00 PM
I-97 at MD-32 56 97 55 None 17 mph 27 mph N 59 - 59 4/25/2017 6:05:00 PM
MD 20 at MD 21 57 94 56 None 4 mph 17 mph SE 61 - 61 4/25/2017 6:05:00 PM
MD 231 at Patuxent River 60 97 59 None 15 mph 20 mph NE 63 - 64 4/25/2017 6:05:00 PM
MD 260 at Cox Rd 58 99 58 None Calm 9 mph N 64 - 64 4/25/2017 6:05:00 PM
MD-135 at Salt Dome 48 100 48 None 5 mph 12 mph E 53 - 53 4/25/2017 6:05:00 PM
MD-140 at MD-97 56 99 56 None 9 mph 18 mph E 59 - 59 4/25/2017 6:05:00 PM
MD-200 EB at Bonifant Rd 57 95 56 None 5 mph 6 mph E 59 - 60 4/25/2017 6:09:00 PM
MD-200 WB at Muncaster Mill Rd 57 93 56 None 5 mph 14 mph E 59 - 61 4/25/2017 6:09:00 PM
MD-213 at Sassafras River 57 100 57 None 4 mph 17 mph NE 60 - 60 4/25/2017 6:05:00 PM
MD-24 at Rock St Park 57 100 57 None Calm 8 mph E 59 - 59 4/25/2017 6:05:00 PM
MD-30 at PA Line 55 100 55 None 7 mph 11 mph NE 58 - 58 4/25/2017 6:05:00 PM
MD-301 at MD-305 58 98 57 None 5 mph 11 mph NE 61 - 62 4/25/2017 6:05:00 PM
MD-33 at Knapps Narrows Drawbridge - - - No Data Available - - No Data Available -
MD-344 at MD-224 59 99 59 None Calm 6 mph NW 64 - 64 4/25/2017 6:05:00 PM
MD-4 at Patuxent River 61 99 61 None - - No Data Available 65 - 66 4/25/2017 6:05:00 PM
MD-404 at Choptank River 58 94 57 Rain 7 mph 19 mph NE 60 - 62 4/25/2017 6:05:00 PM
MD-43 at MD-150 58 97 57 Rain 12 mph 18 mph NE 59 - 59 4/25/2017 6:05:00 PM
MD-51 at Oldtown Salt Dome - - - No Data Available - - No Data Available -
MD-64 at MD-418 - - - No Data Available - - No Data Available -
US-1 at Baltimore / Harford Co. Line 57 92 55 None Calm 7 mph S 59 - 60 4/25/2017 6:05:00 PM
US-1 at Conowingo Dam 58 100 58 None Calm 8 mph E 60 - 60 4/25/2017 6:05:00 PM
US-13 at US-113 63 97 62 None 7 mph 13 mph NE 67 - 67 4/25/2017 6:05:00 PM
US-13 at US-50 - - - No Data Available - - No Data Available -
US-15 at MD-140 56 96 55 None Calm 4 mph NE 58 - 59 4/25/2017 6:05:00 PM
US-301 at MD-5 58 100 58 None 8 mph 15 mph N 63 - 64 4/25/2017 6:05:00 PM
US-301 at Potomac 65 87 61 None Calm 12 mph NE 65 - 66 4/25/2017 6:05:00 PM
US-301 on HWN Bridge 60 96 59 None 10 mph 14 mph NE 65 - 65 4/25/2017 6:09:00 PM
US-340 at MD-180 56 95 55 None 5 mph 10 mph NE 60 - 60 4/25/2017 6:05:00 PM
US-50 at Choptank 60 100 60 None 6 mph 13 mph N 63 - 63 4/25/2017 6:05:00 PM
US-50 at I-95 59 98 58 None 6 mph 12 mph NE 63 - 65 4/25/2017 6:05:00 PM
US-50 at MD-2 57 100 57 None 8 mph 20 mph N 60 - 60 4/25/2017 6:05:00 PM
US-50 at MD-331 62 93 60 None 8 mph 14 mph NE 62 - 63 4/25/2017 6:05:00 PM
US-50 at OC Drawbridge 57 100 57 None 15 mph 21 mph E 60 - 60 4/25/2017 6:05:00 PM
US-50 at Table Rock Rd 48 100 48 None Calm 8 mph E 53 - 53 4/25/2017 6:05:00 PM
US-50 Kent Narrow Bridge 59 100 59 None 10 mph 24 mph NE 60 - 61 4/25/2017 6:05:00 PM
WPL Pier 31 57 96 56 None 33 mph 35 mph E 60 - 60 4/25/2017 6:09:00 PM
Location Air RH Dwp Precip Type Wind Speed Wind Gust Direction Pavement Temperature Date/Time